aviador You're here:

LFRN Decoded Metar

RENNES in FRANCE
Report Time2017-09-23 21:00:00
UTC Time2017-09-23 21:34:42
Flight Rules vfr VFR
Wind130° at 05 kt
W.Decomp.*RWY 14: 5.0 kt HW 0.7 kt LCW
RWY 10: 4.2 kt HW 2.6 kt RCW
W.Rank130° ranks 30
Current wind is below 130° avg. (5.9)
Visibility9999 m
Phenomena:N/A
Clouds:N/A
Expected CloudBase > 1,600 ft AGL from Temp-Dew spread
CeilingNone
Temp16°C (ISA +1)
Dew Point12°C (77% RH)
AAT14.8°C
QNH1018 hPa
Density Alt285 ft
Elevation121 ft
Report Wrong Elevation
Raw Report
LFRN 232100Z AUTO 13005KT CAVOK 16/12 Q1018 NOSIG=

Extra information for LFRN:More info

Metar Taf Metar & Taf Last 4 Metars F.Rules Stats Wind Profile Meteogram Temp Stats Airport Information Weather charts Add Link Nearby VenuesMetar ALERT Operation Metar Decoded Social comments